createdAt,value
2018-03-03T00:00:06.034Z,65.20
2018-03-03T00:01:08.593Z,65.50
2018-03-03T00:02:11.270Z,65.60
2018-03-03T00:03:13.861Z,65.70
2018-03-03T00:04:17.191Z,65.10
2018-03-03T00:05:19.775Z,65.10
2018-03-03T00:06:22.337Z,64.80
2018-03-03T00:07:24.942Z,64.70
2018-03-03T00:08:27.514Z,64.70
2018-03-03T00:09:30.840Z,65.20
2018-03-03T00:10:33.389Z,65.10
2018-03-03T00:11:35.938Z,65.40
2018-03-03T00:12:39.287Z,66.00
2018-03-03T00:13:41.860Z,65.90
2018-03-03T00:14:44.465Z,66.20
2018-03-03T00:15:47.789Z,66.10
2018-03-03T00:16:50.363Z,66.10
2018-03-03T00:17:52.953Z,66.50
2018-03-03T00:18:55.503Z,66.70
2018-03-03T00:19:58.064Z,66.70
2018-03-03T00:21:00.715Z,66.80
2018-03-03T00:22:03.385Z,67.10
2018-03-03T00:23:05.977Z,67.20
2018-03-03T00:24:08.594Z,67.60
2018-03-03T00:25:11.923Z,67.60
2018-03-03T00:26:14.478Z,67.60
2018-03-03T00:27:17.043Z,67.40
2018-03-03T00:28:19.599Z,67.50
2018-03-03T00:29:22.186Z,67.70
2018-03-03T00:30:24.739Z,68.00
2018-03-03T00:31:27.317Z,67.80
2018-03-03T00:32:29.907Z,67.50
2018-03-03T00:33:32.474Z,67.00
2018-03-03T00:34:35.062Z,66.30
2018-03-03T00:35:37.630Z,66.10
2018-03-03T00:36:40.194Z,66.70
2018-03-03T00:37:42.777Z,65.90
2018-03-03T00:38:46.104Z,66.10
2018-03-03T00:39:48.659Z,66.10
2018-03-03T00:40:51.231Z,66.50
2018-03-03T00:41:53.785Z,66.90
2018-03-03T00:42:56.370Z,66.80
2018-03-03T00:43:58.930Z,66.60
2018-03-03T00:45:01.492Z,66.30
2018-03-03T00:46:04.041Z,66.20
2018-03-03T00:47:06.594Z,66.30
2018-03-03T00:48:09.956Z,66.20
2018-03-03T00:49:12.512Z,66.20
2018-03-03T00:50:15.058Z,66.00
2018-03-03T00:51:17.631Z,66.30
2018-03-03T00:52:20.194Z,66.70
2018-03-03T00:53:22.776Z,66.50
2018-03-03T00:54:25.330Z,66.40
2018-03-03T00:55:27.900Z,66.30
2018-03-03T00:56:30.511Z,66.40
2018-03-03T00:57:33.871Z,67.00
2018-03-03T00:58:36.432Z,66.90
2018-03-03T00:59:39.019Z,67.20
2018-03-03T01:00:42.346Z,67.90
2018-03-03T01:01:44.900Z,67.50
2018-03-03T01:02:47.517Z,67.80
2018-03-03T01:03:50.065Z,68.00
2018-03-03T01:04:52.677Z,67.80
2018-03-03T01:05:55.998Z,68.10
2018-03-03T01:06:58.562Z,67.40
2018-03-03T01:08:01.120Z,67.70
2018-03-03T01:09:03.677Z,67.70
2018-03-03T01:10:07.037Z,67.90
2018-03-03T01:11:09.594Z,67.80
2018-03-03T01:12:12.142Z,67.80
2018-03-03T01:13:14.743Z,68.10
2018-03-03T01:14:17.293Z,68.40
2018-03-03T01:15:19.841Z,68.70
2018-03-03T01:16:22.390Z,69.20
2018-03-03T01:17:24.974Z,69.60
2018-03-03T01:18:27.537Z,69.90
2018-03-03T01:19:30.132Z,70.30
2018-03-03T01:20:32.691Z,70.50
2018-03-03T01:21:35.290Z,70.60
2018-03-03T01:22:38.606Z,70.40
2018-03-03T01:23:41.157Z,70.40
2018-03-03T01:24:43.741Z,70.50
2018-03-03T01:25:46.301Z,70.60
2018-03-03T01:26:48.858Z,70.40
2018-03-03T01:27:51.413Z,70.40
2018-03-03T01:28:53.991Z,70.80
2018-03-03T01:29:56.574Z,70.80
2018-03-03T01:30:59.268Z,70.90
2018-03-03T01:32:01.823Z,71.10
2018-03-03T01:33:04.382Z,71.20
2018-03-03T01:34:06.937Z,71.20
2018-03-03T01:35:09.521Z,71.50
2018-03-03T01:36:12.075Z,71.90
2018-03-03T01:37:14.625Z,71.60
2018-03-03T01:38:17.195Z,71.50
2018-03-03T01:39:19.797Z,71.50
2018-03-03T01:40:22.378Z,71.40
2018-03-03T01:41:24.931Z,71.60
2018-03-03T01:42:27.488Z,71.80
2018-03-03T01:43:30.050Z,71.90
2018-03-03T01:44:32.640Z,71.80
2018-03-03T01:45:35.194Z,71.60
2018-03-03T01:46:37.747Z,71.60
2018-03-03T01:47:40.297Z,71.90
2018-03-03T01:48:42.854Z,71.80
2018-03-03T01:49:46.206Z,72.50
2018-03-03T01:50:48.806Z,72.50
2018-03-03T01:51:51.372Z,72.60
2018-03-03T01:52:54.694Z,72.70
2018-03-03T01:53:57.250Z,72.70
2018-03-03T01:54:59.807Z,72.60
2018-03-03T01:56:02.388Z,72.50
2018-03-03T01:57:04.934Z,72.60
2018-03-03T01:58:07.522Z,72.50
2018-03-03T01:59:10.071Z,72.40
2018-03-03T02:00:12.626Z,72.30
2018-03-03T02:01:15.186Z,72.30
2018-03-03T02:02:18.506Z,72.20
2018-03-03T02:03:21.094Z,72.10
2018-03-03T02:04:23.651Z,72.20
2018-03-03T02:05:26.212Z,72.50
2018-03-03T02:06:28.802Z,72.70
2018-03-03T02:07:31.354Z,72.80
2018-03-03T02:08:33.910Z,73.00
2018-03-03T02:09:36.458Z,73.60
2018-03-03T02:10:39.017Z,73.60
2018-03-03T02:11:41.609Z,73.10
2018-03-03T02:12:44.169Z,73.30
2018-03-03T02:13:46.727Z,74.10
2018-03-03T02:14:49.278Z,72.90
2018-03-03T02:15:51.839Z,72.90
2018-03-03T02:16:55.269Z,73.20
2018-03-03T02:17:57.832Z,73.00
2018-03-03T02:19:00.418Z,73.20
2018-03-03T02:20:03.007Z,73.40
2018-03-03T02:21:05.566Z,73.50
2018-03-03T02:22:08.113Z,73.50
2018-03-03T02:23:10.665Z,73.50
2018-03-03T02:24:13.218Z,73.40
2018-03-03T02:25:15.805Z,74.00
2018-03-03T02:26:18.398Z,73.10
2018-03-03T02:27:20.950Z,73.10
2018-03-03T02:28:23.510Z,73.10
2018-03-03T02:29:26.068Z,73.20
2018-03-03T02:30:28.625Z,73.40
2018-03-03T02:31:31.221Z,73.70
2018-03-03T02:32:33.788Z,74.00
2018-03-03T02:33:36.394Z,74.20
2018-03-03T02:34:39.715Z,74.90
2018-03-03T02:35:42.286Z,74.70
2018-03-03T02:36:44.885Z,75.20
2018-03-03T02:37:47.442Z,75.30
2018-03-03T02:38:50.039Z,75.60
2018-03-03T02:39:53.361Z,75.20
2018-03-03T02:40:55.914Z,75.10
2018-03-03T02:41:58.507Z,75.00
2018-03-03T02:43:01.060Z,74.80
2018-03-03T02:44:03.647Z,74.80
2018-03-03T02:45:06.198Z,74.40
2018-03-03T02:46:08.763Z,74.20
2018-03-03T02:47:11.317Z,73.80
2018-03-03T02:48:13.874Z,73.70
2018-03-03T02:49:16.462Z,73.50
2018-03-03T02:50:19.020Z,73.40
2018-03-03T02:51:21.609Z,73.70
2018-03-03T02:52:24.167Z,73.80
2018-03-03T02:53:26.722Z,73.70
2018-03-03T02:54:29.279Z,73.80
2018-03-03T02:55:31.829Z,73.70
2018-03-03T02:56:35.183Z,74.20
2018-03-03T02:57:37.906Z,74.20
2018-03-03T02:58:40.456Z,74.40
2018-03-03T02:59:43.775Z,74.50
2018-03-03T03:00:46.330Z,74.30
2018-03-03T03:01:48.910Z,74.50
2018-03-03T03:02:51.468Z,74.10
2018-03-03T03:03:54.023Z,74.30
2018-03-03T03:04:56.585Z,74.40
2018-03-03T03:05:59.146Z,74.70
2018-03-03T03:07:02.537Z,74.60
2018-03-03T03:08:05.089Z,74.60
2018-03-03T03:09:08.411Z,74.70
2018-03-03T03:10:10.967Z,74.70
2018-03-03T03:11:13.524Z,74.80
2018-03-03T03:12:16.134Z,74.70
2018-03-03T03:13:19.466Z,74.30
2018-03-03T03:14:22.029Z,74.20
2018-03-03T03:15:25.350Z,75.10
2018-03-03T03:16:27.906Z,75.00
2018-03-03T03:17:30.494Z,74.90
2018-03-03T03:18:33.052Z,74.90
2018-03-03T03:19:35.607Z,74.90
2018-03-03T03:20:38.157Z,75.00
2018-03-03T03:21:40.710Z,75.10
2018-03-03T03:22:44.086Z,75.00
2018-03-03T03:23:46.638Z,75.00
2018-03-03T03:24:49.198Z,75.00
2018-03-03T03:25:51.764Z,75.10
2018-03-03T03:26:54.324Z,75.00
2018-03-03T03:27:56.917Z,74.70
2018-03-03T03:29:00.255Z,75.00
2018-03-03T03:30:02.816Z,75.00
2018-03-03T03:31:05.372Z,74.90
2018-03-03T03:32:07.927Z,74.90
2018-03-03T03:33:10.519Z,75.20
2018-03-03T03:34:13.081Z,75.60
2018-03-03T03:35:15.640Z,76.00
2018-03-03T03:36:18.193Z,76.20
2018-03-03T03:37:21.514Z,76.40
2018-03-03T03:38:24.103Z,76.30
2018-03-03T03:39:26.666Z,76.30
2018-03-03T03:40:29.217Z,76.80
2018-03-03T03:41:31.771Z,76.50
2018-03-03T03:42:34.333Z,76.20
2018-03-03T03:43:36.923Z,76.10
2018-03-03T03:44:39.478Z,76.00
2018-03-03T03:45:42.053Z,76.10
2018-03-03T03:46:44.610Z,76.20
2018-03-03T03:47:47.191Z,75.90
2018-03-03T03:48:49.775Z,76.00
2018-03-03T03:49:52.337Z,76.40
2018-03-03T03:50:54.886Z,76.60
2018-03-03T03:51:57.444Z,76.60
2018-03-03T03:52:59.997Z,76.50
2018-03-03T03:54:02.581Z,76.20
2018-03-03T03:55:05.179Z,76.10
2018-03-03T03:56:07.734Z,76.10
2018-03-03T03:57:10.286Z,75.80
2018-03-03T03:58:12.851Z,76.00
2018-03-03T03:59:15.401Z,76.70
2018-03-03T04:00:17.984Z,77.10
2018-03-03T04:01:20.566Z,77.20
2018-03-03T04:02:23.122Z,77.50
2018-03-03T04:03:25.680Z,77.60
2018-03-03T04:04:28.239Z,77.60
2018-03-03T04:05:30.799Z,77.80
2018-03-03T04:06:33.392Z,78.00
2018-03-03T04:07:35.965Z,77.90
2018-03-03T04:08:38.521Z,77.90
2018-03-03T04:09:41.106Z,78.20
2018-03-03T04:10:43.736Z,78.40
2018-03-03T04:11:46.323Z,78.50
2018-03-03T04:12:48.910Z,78.40
2018-03-03T04:13:51.468Z,78.70
2018-03-03T04:14:54.014Z,78.50
2018-03-03T04:15:56.609Z,78.30
2018-03-03T04:16:59.170Z,78.00
2018-03-03T04:18:01.727Z,78.20
2018-03-03T04:19:04.282Z,78.30
2018-03-03T04:20:06.873Z,78.30
2018-03-03T04:21:09.444Z,78.60
2018-03-03T04:22:12.003Z,78.50
2018-03-03T04:23:14.557Z,78.40
2018-03-03T04:24:17.105Z,78.20
2018-03-03T04:25:19.685Z,78.40
2018-03-03T04:26:22.238Z,78.80
2018-03-03T04:27:24.803Z,78.60
2018-03-03T04:28:27.354Z,78.70
2018-03-03T04:29:29.942Z,78.20
2018-03-03T04:30:32.502Z,78.80
2018-03-03T04:31:35.057Z,78.10
2018-03-03T04:32:37.634Z,78.30
2018-03-03T04:33:40.267Z,78.10
2018-03-03T04:34:42.849Z,78.00
2018-03-03T04:35:46.170Z,77.70
2018-03-03T04:36:48.732Z,77.50
2018-03-03T04:37:51.294Z,77.60
2018-03-03T04:38:53.846Z,77.30
2018-03-03T04:39:56.485Z,77.00
2018-03-03T04:40:59.040Z,76.80
2018-03-03T04:42:01.603Z,76.70
2018-03-03T04:43:04.168Z,76.60
2018-03-03T04:45:15.843Z,77.20
2018-03-03T04:46:18.390Z,77.10
2018-03-03T04:47:20.946Z,76.90
2018-03-03T04:48:23.508Z,76.80
2018-03-03T04:49:26.065Z,76.90
2018-03-03T04:50:28.658Z,77.00
2018-03-03T04:51:31.259Z,77.40
2018-03-03T04:52:33.815Z,77.60
2018-03-03T04:53:36.371Z,77.30
2018-03-03T04:54:38.935Z,77.60
2018-03-03T04:55:42.290Z,78.50
2018-03-03T04:56:45.176Z,77.80
2018-03-03T04:57:47.771Z,77.60
2018-03-03T04:58:54.306Z,77.70
2018-03-03T05:00:12.563Z,77.70
2018-03-03T05:01:15.119Z,77.90
2018-03-03T05:02:23.236Z,78.20
2018-03-03T05:03:28.635Z,78.50
2018-03-03T05:04:36.801Z,78.50
2018-03-03T05:07:39.459Z,78.60
2018-03-03T05:08:42.028Z,78.70
2018-03-03T05:09:44.548Z,78.60
2018-03-03T05:10:48.724Z,78.50
2018-03-03T05:11:52.030Z,78.50
2018-03-03T05:14:34.677Z,78.60
2018-03-03T05:15:52.090Z,78.50
2018-03-03T05:18:44.130Z,78.40
2018-03-03T05:19:52.446Z,78.40
2018-03-03T05:21:00.663Z,78.00
2018-03-03T05:22:09.738Z,77.30
2018-03-03T05:23:18.125Z,77.30
2018-03-03T05:24:26.243Z,77.20
2018-03-03T05:25:34.489Z,76.90
2018-03-03T05:26:43.385Z,76.30
2018-03-03T05:27:51.522Z,76.30
2018-03-03T05:28:59.719Z,76.30
2018-03-03T05:30:07.923Z,76.20
2018-03-03T05:31:16.089Z,76.10
2018-03-03T05:34:06.936Z,76.50
2018-03-03T05:35:15.142Z,76.50
2018-03-03T05:36:33.367Z,76.80
2018-03-03T05:37:41.454Z,77.20
2018-03-03T05:40:27.538Z,78.40
2018-03-03T05:41:35.788Z,78.70
2018-03-03T05:42:44.033Z,78.70
2018-03-03T05:43:47.365Z,79.00
2018-03-03T05:44:55.541Z,78.90
2018-03-03T05:46:03.816Z,78.80
2018-03-03T05:48:59.342Z,78.50
2018-03-03T05:50:20.562Z,78.40
2018-03-03T05:51:40.756Z,78.20
2018-03-03T05:52:59.023Z,78.20
2018-03-03T05:54:07.212Z,77.80
2018-03-03T05:55:15.406Z,77.60
2018-03-03T05:56:23.700Z,76.70
2018-03-03T05:57:31.804Z,76.70
2018-03-03T05:58:40.192Z,76.90
2018-03-03T05:59:48.384Z,77.00
2018-03-03T06:00:51.856Z,76.90
2018-03-03T06:01:59.838Z,76.70
2018-03-03T06:03:07.844Z,76.40
2018-03-03T06:04:15.950Z,76.20
2018-03-03T06:05:24.231Z,75.70
2018-03-03T06:06:30.194Z,75.50
2018-03-03T06:07:41.465Z,74.50
2018-03-03T06:08:45.813Z,74.20
2018-03-03T06:09:51.466Z,73.40
2018-03-03T06:10:53.999Z,73.20
2018-03-03T06:11:56.538Z,72.90
2018-03-03T06:12:59.058Z,73.00
2018-03-03T06:14:01.615Z,73.10
2018-03-03T06:15:04.159Z,73.00
2018-03-03T06:16:06.695Z,73.10
2018-03-03T06:17:09.219Z,72.80
2018-03-03T06:18:11.797Z,72.80
2018-03-03T06:19:14.325Z,73.10
2018-03-03T06:20:16.845Z,72.70
2018-03-03T06:21:20.133Z,72.70
2018-03-03T06:22:23.422Z,72.60
2018-03-03T06:23:25.981Z,72.60
2018-03-03T06:24:29.268Z,72.10
2018-03-03T06:25:32.592Z,72.10
2018-03-03T06:26:35.113Z,72.10
2018-03-03T06:27:38.408Z,72.30
2018-03-03T06:28:40.932Z,72.30
2018-03-03T06:29:43.458Z,72.30
2018-03-03T06:30:46.019Z,72.10
2018-03-03T06:31:48.542Z,72.30
2018-03-03T06:32:51.092Z,72.20
2018-03-03T06:33:53.677Z,73.00
2018-03-03T06:34:56.210Z,72.90
2018-03-03T06:35:58.732Z,72.40
2018-03-03T06:37:01.259Z,72.40
2018-03-03T06:38:03.829Z,72.10
2018-03-03T06:39:06.384Z,72.50
2018-03-03T06:40:08.920Z,72.40
2018-03-03T06:41:11.445Z,72.00
2018-03-03T06:42:13.999Z,72.20
2018-03-03T06:43:16.563Z,72.40
2018-03-03T06:44:19.129Z,72.40
2018-03-03T06:45:21.664Z,72.30
2018-03-03T06:46:24.189Z,71.80
2018-03-03T06:47:27.476Z,71.90
2018-03-03T06:48:30.774Z,71.90
2018-03-03T06:49:33.337Z,71.90
2018-03-03T06:50:35.889Z,72.20
2018-03-03T06:51:39.186Z,72.30
2018-03-03T06:52:41.710Z,72.30
2018-03-03T06:55:23.477Z,72.20
2018-03-03T06:58:03.858Z,71.50
2018-03-03T06:59:06.390Z,71.30
2018-03-03T07:00:08.953Z,70.90
2018-03-03T07:01:11.504Z,70.80
2018-03-03T07:02:14.035Z,71.20
2018-03-03T07:03:17.373Z,71.20
2018-03-03T07:04:19.920Z,70.50
2018-03-03T07:05:22.473Z,70.50
2018-03-03T07:06:25.033Z,69.80
2018-03-03T07:07:28.390Z,70.10
2018-03-03T07:08:30.934Z,70.00
2018-03-03T07:09:33.486Z,71.10
2018-03-03T07:10:36.017Z,70.70
2018-03-03T07:11:39.319Z,71.70
2018-03-03T07:12:41.907Z,71.70
2018-03-03T07:13:44.445Z,70.40
2018-03-03T07:14:47.741Z,70.50
2018-03-03T07:15:50.271Z,70.50
2018-03-03T07:16:52.904Z,70.20
2018-03-03T07:17:55.428Z,69.40
2018-03-03T07:18:58.724Z,69.40
2018-03-03T07:20:01.255Z,69.40
2018-03-03T07:21:04.569Z,70.30
2018-03-03T07:22:07.152Z,69.30
2018-03-03T07:23:09.690Z,69.10
2018-03-03T07:24:13.033Z,69.10
2018-03-03T07:25:15.567Z,69.10
2018-03-03T07:26:18.125Z,68.70
2018-03-03T07:27:20.669Z,69.10
2018-03-03T07:28:24.023Z,68.30
2018-03-03T07:29:26.541Z,68.30
2018-03-03T07:30:29.085Z,67.80
2018-03-03T07:31:32.392Z,69.20
2018-03-03T07:32:34.997Z,69.20
2018-03-03T07:33:37.533Z,69.80
2018-03-03T07:34:40.062Z,68.80
2018-03-03T07:35:43.359Z,69.80
2018-03-03T07:36:46.693Z,69.30
2018-03-03T07:37:49.234Z,69.30
2018-03-03T07:38:51.822Z,69.60
2018-03-03T07:39:54.347Z,69.40
2018-03-03T07:40:57.634Z,69.30
2018-03-03T07:42:00.972Z,68.50
2018-03-03T07:43:03.510Z,68.50
2018-03-03T07:44:06.051Z,68.50
2018-03-03T07:45:09.349Z,69.20
2018-03-03T07:46:11.900Z,69.10
2018-03-03T07:47:15.224Z,68.30
2018-03-03T07:48:17.753Z,68.90
2018-03-03T07:49:21.059Z,68.10
2018-03-03T07:50:23.636Z,68.10
2018-03-03T07:51:26.168Z,68.60
2018-03-03T07:52:29.464Z,69.00
2018-03-03T07:53:31.999Z,69.00
2018-03-03T07:54:34.529Z,68.90
2018-03-03T07:55:37.106Z,69.30
2018-03-03T07:56:50.502Z,68.50
2018-03-03T07:57:53.437Z,68.60
2018-03-03T07:58:57.680Z,68.70
2018-03-03T08:00:00.217Z,68.70
2018-03-03T08:01:03.542Z,68.70
2018-03-03T08:02:06.474Z,68.60
2018-03-03T08:03:09.780Z,67.10
2018-03-03T08:04:12.309Z,67.00
2018-03-03T08:05:14.838Z,67.00
2018-03-03T08:06:17.375Z,68.20
2018-03-03T08:07:19.934Z,68.20
2018-03-03T08:08:22.467Z,67.70
2018-03-03T08:09:24.992Z,67.40
2018-03-03T08:10:27.528Z,67.80
2018-03-03T08:11:30.103Z,68.10
2018-03-03T08:12:32.629Z,68.60
2018-03-03T08:13:35.165Z,68.30
2018-03-03T08:14:37.696Z,68.20
2018-03-03T08:15:40.241Z,68.20
2018-03-03T08:16:43.580Z,67.60
2018-03-03T08:17:46.111Z,67.60
2018-03-03T08:18:49.416Z,67.30
2018-03-03T08:19:51.942Z,67.30
2018-03-03T08:20:55.604Z,67.60
2018-03-03T08:21:58.130Z,67.80
2018-03-03T08:23:00.662Z,67.50
2018-03-03T08:24:03.357Z,67.50
2018-03-03T08:25:06.402Z,67.80
2018-03-03T08:26:09.121Z,66.80
2018-03-03T08:27:11.881Z,66.60
2018-03-03T08:28:14.422Z,66.40
2018-03-03T08:29:17.746Z,66.00
2018-03-03T08:30:20.296Z,66.00
2018-03-03T08:31:22.856Z,65.80
2018-03-03T08:32:26.193Z,65.80
2018-03-03T08:33:28.743Z,65.80
2018-03-03T08:34:31.278Z,65.30
2018-03-03T08:35:33.817Z,64.60
2018-03-03T08:36:36.357Z,64.70
2018-03-03T08:37:38.931Z,65.40
2018-03-03T08:38:41.469Z,65.80
2018-03-03T08:39:44.047Z,66.60
2018-03-03T08:40:46.584Z,67.10
2018-03-03T08:41:49.129Z,66.70
2018-03-03T08:42:52.464Z,66.80
2018-03-03T08:43:55.045Z,66.70
2018-03-03T08:44:57.537Z,66.40
2018-03-03T08:46:00.071Z,66.10
2018-03-03T08:47:02.651Z,65.80
2018-03-03T08:48:05.191Z,65.80
2018-03-03T08:49:07.721Z,65.60
2018-03-03T08:50:10.251Z,65.60
2018-03-03T08:51:12.776Z,65.10
2018-03-03T08:52:15.355Z,65.90
2018-03-03T08:53:17.896Z,66.20
2018-03-03T08:54:20.424Z,66.10
2018-03-03T08:55:22.951Z,66.00
2018-03-03T08:56:25.477Z,66.00
2018-03-03T08:57:28.818Z,65.90
2018-03-03T08:58:31.341Z,65.90
2018-03-03T08:59:33.875Z,65.90
2018-03-03T09:00:36.414Z,66.40
2018-03-03T09:01:38.968Z,66.60
2018-03-03T09:02:41.544Z,66.00
2018-03-03T09:03:44.080Z,66.30
2018-03-03T09:04:46.613Z,66.60
2018-03-03T09:05:49.153Z,66.10
2018-03-03T09:06:51.686Z,66.00
2018-03-03T09:07:54.251Z,66.10
2018-03-03T09:08:56.828Z,66.00
2018-03-03T09:09:59.361Z,66.30
2018-03-03T09:11:02.654Z,66.20
2018-03-03T09:12:05.198Z,66.20
2018-03-03T09:13:07.741Z,66.20
2018-03-03T09:14:10.306Z,66.50
2018-03-03T09:15:12.873Z,66.30
2018-03-03T09:16:15.409Z,66.30
2018-03-03T09:17:17.947Z,66.50
2018-03-03T09:18:20.479Z,65.80
2018-03-03T09:19:23.008Z,65.30
2018-03-03T09:20:25.574Z,65.40
2018-03-03T09:21:28.100Z,65.40
2018-03-03T09:22:31.393Z,65.30
2018-03-03T09:23:34.717Z,65.10
2018-03-03T09:24:37.249Z,65.10
2018-03-03T09:25:39.773Z,65.00
2018-03-03T09:26:42.334Z,64.90
2018-03-03T09:27:44.872Z,65.10
2018-03-03T09:28:47.441Z,65.30
2018-03-03T09:29:50.016Z,65.90
2018-03-03T09:30:52.577Z,64.90
2018-03-03T09:31:55.335Z,65.00
2018-03-03T09:32:57.872Z,64.90
2018-03-03T09:34:01.192Z,64.60
2018-03-03T09:35:03.724Z,64.60
2018-03-03T09:36:07.032Z,63.80
2018-03-03T09:37:09.616Z,63.70
2018-03-03T09:38:12.146Z,63.50
2018-03-03T09:39:15.458Z,63.40
2018-03-03T09:40:18.041Z,63.40
2018-03-03T09:41:20.581Z,63.00
2018-03-03T09:42:23.121Z,63.00
2018-03-03T09:43:26.420Z,62.60
2018-03-03T09:44:28.962Z,62.60
2018-03-03T09:45:31.527Z,62.90
2018-03-03T09:46:34.054Z,63.20
2018-03-03T09:47:36.605Z,62.70
2018-03-03T09:48:39.138Z,62.80
2018-03-03T09:49:42.445Z,63.10
2018-03-03T09:50:45.022Z,63.10
2018-03-03T09:51:47.564Z,63.50
2018-03-03T09:52:50.105Z,63.40
2018-03-03T09:53:52.649Z,63.40
2018-03-03T09:54:55.204Z,63.90
2018-03-03T09:55:57.778Z,64.30
2018-03-03T09:57:00.306Z,64.00
2018-03-03T09:58:02.842Z,63.60
2018-03-03T09:59:05.374Z,63.30
2018-03-03T10:00:07.909Z,64.80
2018-03-03T10:01:10.473Z,64.50
2018-03-03T10:02:13.005Z,64.60
2018-03-03T10:03:15.557Z,64.90
2018-03-03T10:04:18.098Z,65.00
2018-03-03T10:05:20.624Z,64.50
2018-03-03T10:06:23.963Z,64.20
2018-03-03T10:07:26.505Z,64.10
2018-03-03T10:08:29.041Z,65.30
2018-03-03T10:09:32.333Z,66.60
2018-03-03T10:10:34.868Z,66.60
2018-03-03T10:11:37.443Z,66.40
2018-03-03T10:13:49.607Z,66.70
2018-03-03T10:14:52.153Z,66.70
2018-03-03T10:15:54.697Z,66.90
2018-03-03T10:16:57.229Z,66.40
2018-03-03T10:17:59.762Z,66.00
2018-03-03T10:19:02.328Z,66.50
2018-03-03T10:20:04.869Z,65.90
2018-03-03T10:21:07.426Z,65.70
2018-03-03T10:22:10.729Z,64.60
2018-03-03T10:23:13.273Z,64.60
2018-03-03T10:24:16.611Z,64.50
2018-03-03T10:25:19.145Z,64.50
2018-03-03T10:26:21.677Z,63.70
2018-03-03T10:27:24.999Z,64.20
2018-03-03T10:28:27.577Z,64.20
2018-03-03T10:29:30.130Z,65.00
2018-03-03T10:30:32.677Z,64.60
2018-03-03T10:31:35.973Z,65.10
2018-03-03T10:32:38.505Z,65.10
2018-03-03T10:33:41.078Z,65.30
2018-03-03T10:34:44.377Z,65.00
2018-03-03T10:35:46.922Z,65.00
2018-03-03T10:36:49.459Z,64.60
2018-03-03T10:37:52.018Z,65.00
2018-03-03T10:38:54.545Z,63.90
2018-03-03T10:39:57.873Z,63.70
2018-03-03T10:41:00.417Z,63.60
2018-03-03T10:42:02.977Z,63.70
2018-03-03T10:43:05.545Z,63.90
2018-03-03T10:44:08.083Z,64.00
2018-03-03T10:45:11.382Z,63.70
2018-03-03T10:46:13.930Z,63.70
2018-03-03T10:47:17.236Z,63.80
2018-03-03T10:48:19.805Z,63.80
2018-03-03T10:49:22.384Z,63.40
2018-03-03T10:50:24.921Z,63.40
2018-03-03T10:51:28.218Z,62.70
2018-03-03T10:52:30.762Z,62.70
2018-03-03T10:53:34.113Z,63.10
2018-03-03T10:54:37.408Z,63.60
2018-03-03T10:55:39.946Z,63.50
2018-03-03T10:56:42.543Z,63.80
2018-03-03T10:57:45.077Z,64.20
2018-03-03T10:58:47.645Z,64.40
2018-03-03T10:59:50.188Z,64.00
2018-03-03T11:00:52.717Z,64.20
2018-03-03T11:01:55.289Z,65.00
2018-03-03T11:02:57.832Z,64.20
2018-03-03T11:04:00.380Z,64.10
2018-03-03T11:05:02.944Z,64.20
2018-03-03T11:06:05.524Z,65.20
2018-03-03T11:07:08.128Z,65.10
2018-03-03T11:08:10.661Z,65.50
2018-03-03T11:09:13.207Z,65.40
2018-03-03T11:10:15.744Z,65.20
2018-03-03T11:11:18.330Z,65.30
2018-03-03T11:12:20.873Z,65.00
2018-03-03T11:13:24.169Z,65.00
2018-03-03T11:14:26.729Z,65.00
2018-03-03T11:15:29.289Z,65.70
2018-03-03T11:16:32.641Z,66.00
2018-03-03T11:17:35.183Z,66.00
2018-03-03T11:18:37.736Z,65.70
2018-03-03T11:19:40.265Z,65.10
2018-03-03T11:20:43.571Z,64.60
2018-03-03T11:21:46.133Z,64.60
2018-03-03T11:22:48.665Z,64.30
2018-03-03T11:23:51.201Z,63.90
2018-03-03T11:24:53.738Z,63.60
2018-03-03T11:25:56.314Z,64.50
2018-03-03T11:26:58.841Z,64.00
2018-03-03T11:28:01.370Z,64.30
2018-03-03T11:29:03.917Z,64.10
2018-03-03T11:30:06.456Z,63.50
2018-03-03T11:31:09.850Z,63.30
2018-03-03T11:32:12.373Z,63.30
2018-03-03T11:33:14.905Z,63.50
2018-03-03T11:34:17.444Z,63.50
2018-03-03T11:35:20.734Z,64.10
2018-03-03T11:36:23.296Z,64.00
2018-03-03T11:37:26.642Z,63.60
2018-03-03T11:38:29.174Z,63.60
2018-03-03T11:39:31.712Z,63.00
2018-03-03T11:40:35.057Z,63.30
2018-03-03T11:41:37.598Z,63.30
2018-03-03T11:42:40.169Z,63.30
2018-03-03T11:43:42.730Z,64.30
2018-03-03T11:44:45.267Z,63.90
2018-03-03T11:45:47.804Z,64.10
2018-03-03T11:46:50.367Z,64.20
2018-03-03T11:47:52.893Z,64.30
2018-03-03T11:48:55.471Z,64.40
2018-03-03T11:49:58.005Z,64.50
2018-03-03T11:51:00.532Z,64.50
2018-03-03T11:52:03.065Z,64.60
2018-03-03T11:53:05.605Z,64.60
2018-03-03T11:54:08.173Z,64.30
2018-03-03T11:55:10.737Z,63.00
2018-03-03T11:56:13.266Z,63.10
2018-03-03T11:57:15.793Z,63.80
2018-03-03T11:58:18.369Z,64.30
2018-03-03T11:59:20.908Z,64.50
2018-03-03T12:00:23.445Z,65.00
2018-03-03T12:01:26.770Z,64.90
2018-03-03T12:02:29.303Z,64.90
2018-03-03T12:03:32.598Z,64.60
2018-03-03T12:04:35.138Z,64.60
2018-03-03T12:05:38.476Z,64.40
2018-03-03T12:06:41.011Z,64.40
2018-03-03T12:07:43.547Z,64.70
2018-03-03T12:08:46.078Z,64.40
2018-03-03T12:09:48.648Z,64.30
2018-03-03T12:10:51.216Z,64.30
2018-03-03T12:11:53.760Z,64.70
2018-03-03T12:12:56.297Z,64.30
2018-03-03T12:13:59.601Z,63.70
2018-03-03T12:15:02.169Z,63.70
2018-03-03T12:16:04.701Z,64.00
2018-03-03T12:17:07.240Z,63.90
2018-03-03T12:18:09.788Z,63.40
2018-03-03T12:19:12.326Z,63.50
2018-03-03T12:20:14.891Z,63.40
2018-03-03T12:21:18.202Z,63.50
2018-03-03T12:22:20.775Z,63.50
2018-03-03T12:23:23.324Z,64.10
2018-03-03T12:24:25.856Z,64.60
2018-03-03T12:25:29.150Z,65.50
2018-03-03T12:26:32.460Z,64.80
2018-03-03T12:27:35.025Z,64.70
2018-03-03T12:28:37.556Z,64.70
2018-03-03T12:29:40.890Z,64.50
2018-03-03T12:30:43.424Z,64.90
2018-03-03T12:31:46.789Z,64.30
2018-03-03T12:32:49.324Z,64.30
2018-03-03T12:33:51.861Z,64.60
2018-03-03T12:34:54.394Z,64.00
2018-03-03T12:35:57.697Z,64.40
2018-03-03T12:37:00.272Z,64.40
2018-03-03T12:38:02.801Z,64.30
2018-03-03T12:39:05.345Z,63.50
2018-03-03T12:40:07.881Z,63.30
2018-03-03T12:41:10.410Z,62.60
2018-03-03T12:42:12.993Z,62.40
2018-03-03T12:43:15.530Z,62.60
2018-03-03T12:44:18.056Z,62.20
2018-03-03T12:45:20.584Z,62.30
2018-03-03T12:46:23.881Z,62.20
2018-03-03T12:47:26.440Z,62.30
2018-03-03T12:48:29.738Z,61.30
2018-03-03T12:49:32.266Z,61.20
2018-03-03T12:50:35.577Z,61.00
2018-03-03T12:51:38.114Z,61.00
2018-03-03T12:52:41.463Z,61.30
2018-03-03T12:53:44.001Z,61.30
2018-03-03T12:54:46.545Z,61.20
2018-03-03T12:55:49.863Z,61.30
2018-03-03T12:56:52.436Z,61.30
2018-03-03T12:57:54.974Z,61.30
2018-03-03T12:58:57.522Z,61.20
2018-03-03T13:00:00.867Z,62.40
2018-03-03T13:01:03.397Z,61.50
2018-03-03T13:02:05.934Z,61.20
2018-03-03T13:03:08.458Z,60.90
2018-03-03T13:04:11.001Z,60.40
2018-03-03T13:05:13.574Z,59.80
2018-03-03T13:06:16.104Z,59.40
2018-03-03T13:07:19.401Z,59.70
2018-03-03T13:08:22.697Z,60.00
2018-03-03T13:09:25.241Z,60.00
2018-03-03T13:10:28.570Z,59.80
2018-03-03T13:11:31.098Z,59.60
2018-03-03T13:12:34.397Z,59.60
2018-03-03T13:13:36.929Z,59.60
2018-03-03T13:14:39.456Z,58.80
2018-03-03T13:15:42.032Z,58.70
2018-03-03T13:16:44.567Z,58.80
2018-03-03T13:17:47.102Z,59.40
2018-03-03T13:18:50.392Z,59.40
2018-03-03T13:19:53.682Z,59.30
2018-03-03T13:20:57.033Z,59.20
2018-03-03T13:21:59.615Z,59.20
2018-03-03T13:24:11.048Z,58.20
2018-03-03T13:25:13.577Z,58.30
2018-03-03T13:26:16.916Z,57.10
2018-03-03T13:27:19.445Z,57.00
2018-03-03T13:28:22.737Z,55.30
2018-03-03T13:29:25.285Z,55.30
2018-03-03T13:30:28.619Z,56.70
2018-03-03T13:31:31.140Z,56.60
2018-03-03T13:32:33.736Z,56.30
2018-03-03T13:33:36.265Z,55.30
2018-03-03T13:34:39.567Z,55.10
2018-03-03T13:35:42.104Z,55.00
2018-03-03T13:36:45.405Z,55.20
2018-03-03T13:37:47.972Z,54.60
2018-03-03T13:38:51.302Z,53.30
2018-03-03T13:39:53.881Z,53.30
2018-03-03T13:40:56.440Z,51.90
2018-03-03T13:41:58.970Z,52.10
2018-03-03T13:43:01.513Z,52.70
2018-03-03T13:44:04.806Z,53.90
2018-03-03T13:45:07.337Z,53.90
2018-03-03T13:46:09.896Z,54.60
2018-03-03T13:47:12.421Z,55.10
2018-03-03T13:48:14.951Z,56.20
2018-03-03T13:49:17.496Z,56.70